< < Back
Terminal Aerodrome Forecast


Current Version              Previous Versions:   1  2  3  4  5  6  7  8  9  

Terminal Aerodrome Forecast

778
FTUS42 KCHS 301700
TAFSAV
TAF
KSAV 301737Z 3018/3118 12010G15KT P6SM SCT050
     FM310100 VRB03KT P6SM FEW025
     FM310600 VRB02KT 6SM BR FEW002 SCT015
     FM311300 08005KT P6SM SCT035=

Latest METAR

666
SAUS80 KWBC 301000 RRF
MTRSAV
METAR KSAV 310953Z 00000KT 10SM CLR 24/23 A3014 RMK AO2 SLP204 FIRST
AUGMENTED OBSERVATION T02440228


USA.gov is the U.S. government's official web portal to all federal, state and local government web resources and services.